createdAt,value
2023-09-20T00:00:23.552Z,100.00
2023-09-20T00:03:12.012Z,100.00
2023-09-20T00:05:44.579Z,100.00
2023-09-20T00:08:12.948Z,100.00
2023-09-20T00:10:41.483Z,100.00
2023-09-20T00:13:11.100Z,100.00
2023-09-20T00:15:44.268Z,100.00
2023-09-20T00:18:12.965Z,100.00
2023-09-20T00:20:41.451Z,100.00
2023-09-20T00:23:10.643Z,100.00
2023-09-20T00:25:39.160Z,100.00
2023-09-20T00:28:08.281Z,100.00
2023-09-20T00:30:38.588Z,100.00
2023-09-20T00:33:07.350Z,100.00
2023-09-20T00:35:40.729Z,100.00
2023-09-20T00:38:10.080Z,100.00
2023-09-20T00:40:41.203Z,100.00
2023-09-20T00:43:12.560Z,100.00
2023-09-20T00:45:42.039Z,100.00
2023-09-20T00:48:13.919Z,100.00
2023-09-20T00:50:44.188Z,100.00
2023-09-20T00:53:15.272Z,100.00
2023-09-20T00:55:44.170Z,100.00
2023-09-20T00:58:16.374Z,100.00
2023-09-20T01:00:44.899Z,100.00
2023-09-20T01:03:20.030Z,100.00
2023-09-20T01:05:49.409Z,100.00
2023-09-20T01:08:19.304Z,100.00
2023-09-20T01:10:49.757Z,100.00
2023-09-20T01:13:20.157Z,100.00
2023-09-20T01:15:48.617Z,100.00
2023-09-20T01:18:17.060Z,100.00
2023-09-20T01:20:46.227Z,100.00
2023-09-20T01:23:15.093Z,100.00
2023-09-20T01:25:44.947Z,100.00
2023-09-20T01:28:14.510Z,100.00
2023-09-20T01:30:43.783Z,100.00
2023-09-20T01:33:14.612Z,100.00
2023-09-20T01:35:46.714Z,100.00
2023-09-20T01:38:16.401Z,100.00
2023-09-20T01:40:47.975Z,100.00
2023-09-20T01:43:16.566Z,100.00
2023-09-20T01:45:46.069Z,100.00
2023-09-20T01:48:16.577Z,100.00
2023-09-20T01:50:45.162Z,100.00
2023-09-20T01:53:16.207Z,100.00
2023-09-20T01:55:45.769Z,100.00
2023-09-20T01:58:15.156Z,100.00
2023-09-20T02:00:44.572Z,100.00
2023-09-20T02:03:18.982Z,100.00
2023-09-20T02:05:50.026Z,100.00
2023-09-20T02:08:20.166Z,100.00
2023-09-20T02:10:49.068Z,100.00
2023-09-20T02:13:19.767Z,100.00
2023-09-20T02:15:48.994Z,100.00
2023-09-20T02:18:17.836Z,100.00
2023-09-20T02:20:46.278Z,100.00
2023-09-20T02:23:16.653Z,100.00
2023-09-20T02:25:45.355Z,100.00
2023-09-20T02:28:14.122Z,100.00
2023-09-20T02:30:43.998Z,100.00
2023-09-20T02:33:16.634Z,100.00
2023-09-20T02:35:46.789Z,100.00
2023-09-20T02:38:15.575Z,100.00
2023-09-20T02:40:47.902Z,100.00
2023-09-20T02:43:17.914Z,100.00
2023-09-20T02:45:47.178Z,100.00
2023-09-20T02:48:16.176Z,100.00
2023-09-20T02:50:46.236Z,100.00
2023-09-20T02:53:15.765Z,100.00
2023-09-20T02:55:44.322Z,100.00
2023-09-20T02:58:13.870Z,100.00
2023-09-20T03:00:48.415Z,100.00
2023-09-20T03:03:18.917Z,100.00
2023-09-20T03:05:47.621Z,100.00
2023-09-20T03:08:16.116Z,100.00
2023-09-20T03:10:45.060Z,100.00
2023-09-20T03:13:18.627Z,100.00
2023-09-20T03:15:49.452Z,100.00
2023-09-20T03:18:19.949Z,100.00
2023-09-20T03:20:54.545Z,100.00
2023-09-20T03:23:25.370Z,100.00
2023-09-20T03:25:53.716Z,100.00
2023-09-20T03:28:24.089Z,100.00
2023-09-20T03:30:53.435Z,100.00
2023-09-20T03:33:22.986Z,100.00
2023-09-20T03:35:52.986Z,100.00
2023-09-20T03:38:21.661Z,100.00
2023-09-20T03:40:50.254Z,100.00
2023-09-20T03:43:19.076Z,100.00
2023-09-20T03:45:53.198Z,100.00
2023-09-20T03:48:22.641Z,100.00
2023-09-20T03:50:51.085Z,100.00
2023-09-20T03:53:21.168Z,100.00
2023-09-20T03:55:52.102Z,100.00
2023-09-20T03:58:21.835Z,100.00
2023-09-20T04:00:50.284Z,100.00
2023-09-20T04:03:18.927Z,100.00
2023-09-20T04:05:47.933Z,100.00
2023-09-20T04:08:20.881Z,100.00
2023-09-20T04:10:49.272Z,100.00
2023-09-20T04:13:19.127Z,100.00
2023-09-20T04:15:47.530Z,100.00
2023-09-20T04:18:17.131Z,100.00
2023-09-20T04:20:47.652Z,100.00
2023-09-20T04:23:17.065Z,100.00
2023-09-20T04:25:46.677Z,100.00
2023-09-20T04:28:15.904Z,100.00
2023-09-20T04:30:44.254Z,100.00
2023-09-20T04:33:15.229Z,100.00
2023-09-20T04:35:48.954Z,100.00
2023-09-20T04:38:22.501Z,100.00
2023-09-20T04:40:50.919Z,100.00
2023-09-20T04:43:19.389Z,100.00
2023-09-20T04:45:48.573Z,100.00
2023-09-20T04:48:17.150Z,100.00
2023-09-20T04:50:50.293Z,100.00
2023-09-20T04:53:18.685Z,100.00
2023-09-20T04:55:47.059Z,100.00
2023-09-20T04:58:15.407Z,100.00
2023-09-20T05:00:44.104Z,100.00
2023-09-20T05:03:16.720Z,100.00
2023-09-20T05:05:46.647Z,100.00
2023-09-20T05:08:16.728Z,100.00
2023-09-20T05:10:46.207Z,100.00
2023-09-20T05:13:14.609Z,100.00
2023-09-20T05:15:43.117Z,100.00
2023-09-20T05:18:13.306Z,100.00
2023-09-20T05:20:42.353Z,100.00
2023-09-20T05:23:10.849Z,100.00
2023-09-20T05:25:39.220Z,100.00
2023-09-20T05:28:07.996Z,100.00
2023-09-20T05:30:36.398Z,100.00
2023-09-20T05:33:05.829Z,100.00
2023-09-20T05:35:34.508Z,100.00
2023-09-20T05:38:03.891Z,100.00
2023-09-20T05:40:32.606Z,100.00
2023-09-20T05:43:02.640Z,100.00
2023-09-20T05:45:32.548Z,100.00
2023-09-20T05:48:02.669Z,100.00
2023-09-20T05:50:37.101Z,100.00
2023-09-20T05:53:08.475Z,100.00
2023-09-20T05:55:40.803Z,100.00
2023-09-20T05:58:09.340Z,100.00
2023-09-20T06:00:37.933Z,100.00
2023-09-20T06:03:06.796Z,100.00
2023-09-20T06:05:38.913Z,100.00
2023-09-20T06:08:07.561Z,100.00
2023-09-20T06:10:36.146Z,100.00
2023-09-20T06:13:06.769Z,100.00
2023-09-20T06:15:38.591Z,100.00
2023-09-20T06:18:10.238Z,100.00
2023-09-20T06:20:41.138Z,100.00
2023-09-20T06:23:09.681Z,100.00
2023-09-20T06:25:38.140Z,100.00
2023-09-20T06:28:06.955Z,100.00
2023-09-20T06:30:35.379Z,100.00
2023-09-20T06:33:04.916Z,100.00
2023-09-20T06:35:33.504Z,100.00
2023-09-20T06:38:02.116Z,100.00
2023-09-20T06:40:39.952Z,100.00
2023-09-20T06:43:09.114Z,100.00
2023-09-20T06:45:39.021Z,100.00
2023-09-20T06:48:07.750Z,100.00
2023-09-20T06:50:37.123Z,100.00
2023-09-20T06:53:06.186Z,100.00
2023-09-20T06:55:35.271Z,100.00
2023-09-20T06:58:19.152Z,100.00
2023-09-20T07:00:52.938Z,100.00
2023-09-20T07:03:21.549Z,100.00
2023-09-20T07:05:50.334Z,100.00
2023-09-20T07:08:19.666Z,100.00
2023-09-20T07:10:48.063Z,100.00
2023-09-20T07:13:20.965Z,100.00
2023-09-20T07:15:50.367Z,100.00
2023-09-20T07:18:19.366Z,100.00
2023-09-20T07:20:48.054Z,100.00
2023-09-20T07:23:17.687Z,100.00
2023-09-20T07:25:46.664Z,100.00
2023-09-20T07:28:15.645Z,100.00
2023-09-20T07:30:47.614Z,100.00
2023-09-20T07:33:21.189Z,100.00
2023-09-20T07:36:00.282Z,100.00
2023-09-20T07:38:39.648Z,100.00
2023-09-20T07:41:15.274Z,100.00
2023-09-20T07:43:45.897Z,100.00
2023-09-20T07:46:16.786Z,100.00
2023-09-20T07:48:54.250Z,100.00
2023-09-20T07:51:25.002Z,100.00
2023-09-20T07:53:57.749Z,100.00
2023-09-20T07:56:27.079Z,100.00
2023-09-20T07:58:56.740Z,100.00
2023-09-20T08:01:29.052Z,100.00
2023-09-20T08:04:01.813Z,100.00
2023-09-20T08:06:36.746Z,100.00
2023-09-20T08:09:06.477Z,100.00
2023-09-20T08:11:36.180Z,100.00
2023-09-20T08:14:05.820Z,100.00
2023-09-20T08:19:08.923Z,100.00
2023-09-20T08:21:37.883Z,100.00
2023-09-20T08:24:24.932Z,100.00
2023-09-20T08:27:13.293Z,100.00
2023-09-20T08:30:00.568Z,100.00
2023-09-20T08:32:47.773Z,100.00
2023-09-20T08:35:34.879Z,100.00
2023-09-20T08:38:21.701Z,100.00
2023-09-20T08:41:08.418Z,100.00
2023-09-20T08:43:55.994Z,100.00
2023-09-20T08:46:44.171Z,100.00
2023-09-20T08:49:32.297Z,100.00
2023-09-20T08:52:32.678Z,100.00
2023-09-20T08:55:19.250Z,100.00
2023-09-20T08:58:07.853Z,100.00
2023-09-20T09:00:37.711Z,100.00
2023-09-20T09:03:07.016Z,100.00
2023-09-20T09:05:37.570Z,100.00
2023-09-20T09:08:08.139Z,100.00
2023-09-20T09:10:36.569Z,100.00
2023-09-20T09:13:05.744Z,100.00
2023-09-20T09:15:35.622Z,100.00
2023-09-20T09:18:04.262Z,100.00
2023-09-20T09:20:34.376Z,100.00
2023-09-20T09:23:03.975Z,100.00
2023-09-20T09:25:33.555Z,100.00
2023-09-20T09:28:02.597Z,100.00
2023-09-20T09:30:33.240Z,100.00
2023-09-20T09:33:01.832Z,100.00
2023-09-20T09:35:44.932Z,100.00
2023-09-20T09:38:23.285Z,100.00
2023-09-20T09:40:59.585Z,100.00
2023-09-20T09:43:31.840Z,100.00
2023-09-20T09:46:09.976Z,100.00
2023-09-20T09:48:39.099Z,100.00
2023-09-20T09:51:08.202Z,100.00
2023-09-20T09:53:41.086Z,100.00
2023-09-20T09:56:10.747Z,100.00
2023-09-20T09:58:39.537Z,100.00
2023-09-20T10:01:09.522Z,100.00
2023-09-20T10:03:42.766Z,100.00
2023-09-20T10:06:21.098Z,100.00
2023-09-20T10:08:57.199Z,100.00
2023-09-20T10:11:28.111Z,100.00
2023-09-20T10:13:58.690Z,100.00
2023-09-20T10:16:29.508Z,100.00
2023-09-20T10:19:01.356Z,100.00
2023-09-20T10:21:33.020Z,100.00
2023-09-20T10:24:09.709Z,100.00
2023-09-20T10:26:43.104Z,100.00
2023-09-20T10:29:30.490Z,100.00
2023-09-20T10:32:15.119Z,100.00
2023-09-20T10:35:24.678Z,100.00
2023-09-20T10:38:19.307Z,100.00
2023-09-20T10:40:50.557Z,100.00
2023-09-20T10:43:48.039Z,100.00
2023-09-20T10:46:19.580Z,100.00
2023-09-20T10:48:52.994Z,100.00
2023-09-20T10:51:40.012Z,100.00
2023-09-20T10:54:24.126Z,100.00
2023-09-20T10:56:52.460Z,100.00
2023-09-20T10:59:23.214Z,100.00
2023-09-20T11:02:00.248Z,100.00
2023-09-20T11:04:30.236Z,100.00
2023-09-20T11:07:01.242Z,100.00
2023-09-20T11:09:35.394Z,100.00
2023-09-20T11:12:09.669Z,100.00
2023-09-20T11:14:44.382Z,100.00
2023-09-20T11:17:17.898Z,100.00
2023-09-20T11:19:46.726Z,100.00
2023-09-20T11:22:16.008Z,100.00
2023-09-20T11:24:44.506Z,100.00
2023-09-20T11:27:15.094Z,100.00
2023-09-20T11:29:45.374Z,100.00
2023-09-20T11:32:14.168Z,100.00
2023-09-20T11:34:49.240Z,100.00
2023-09-20T11:37:21.946Z,100.00
2023-09-20T11:39:53.234Z,100.00
2023-09-20T11:42:31.114Z,100.00
2023-09-20T11:45:29.425Z,100.00
2023-09-20T11:47:53.653Z,100.00
2023-09-20T11:50:26.728Z,100.00
2023-09-20T11:52:56.493Z,100.00
2023-09-20T11:55:27.909Z,100.00
2023-09-20T11:58:01.006Z,100.00
2023-09-20T12:00:31.331Z,100.00
2023-09-20T12:03:01.101Z,100.00
2023-09-20T12:05:30.315Z,100.00
2023-09-20T12:08:01.157Z,100.00
2023-09-20T12:10:31.526Z,100.00
2023-09-20T12:13:00.227Z,100.00
2023-09-20T12:15:30.063Z,100.00
2023-09-20T12:17:58.971Z,100.00
2023-09-20T12:20:28.212Z,100.00
2023-09-20T12:23:02.921Z,100.00
2023-09-20T12:25:32.448Z,100.00
2023-09-20T12:28:01.099Z,100.00
2023-09-20T12:30:30.164Z,99.15
2023-09-20T12:32:59.698Z,99.10
2023-09-20T12:35:31.381Z,98.40
2023-09-20T12:37:59.868Z,98.18
2023-09-20T12:40:28.912Z,97.03
2023-09-20T12:43:03.097Z,97.31
2023-09-20T12:45:31.788Z,95.31
2023-09-20T12:48:00.251Z,93.88
2023-09-20T12:50:34.633Z,90.54
2023-09-20T12:53:03.028Z,88.00
2023-09-20T12:55:32.389Z,87.40
2023-09-20T12:58:00.773Z,86.78
2023-09-20T13:00:43.268Z,91.14
2023-09-20T13:03:15.410Z,92.30
2023-09-20T13:05:45.846Z,90.81
2023-09-20T13:08:19.124Z,89.53
2023-09-20T13:10:53.345Z,92.86
2023-09-20T13:13:25.938Z,92.66
2023-09-20T13:15:54.378Z,91.42
2023-09-20T13:18:22.859Z,91.95
2023-09-20T13:20:53.527Z,95.06
2023-09-20T13:23:24.397Z,97.29
2023-09-20T13:25:54.294Z,96.94
2023-09-20T13:28:24.429Z,97.72
2023-09-20T13:30:52.927Z,99.16
2023-09-20T13:33:21.456Z,100.00
2023-09-20T13:35:49.890Z,100.00
2023-09-20T13:38:18.282Z,100.00
2023-09-20T13:40:48.324Z,100.00
2023-09-20T13:43:16.749Z,100.00
2023-09-20T13:45:45.640Z,100.00
2023-09-20T13:48:15.221Z,100.00
2023-09-20T13:50:45.136Z,100.00
2023-09-20T13:53:14.823Z,100.00
2023-09-20T13:55:43.249Z,100.00
2023-09-20T13:58:13.158Z,100.00
2023-09-20T14:00:41.837Z,100.00
2023-09-20T14:03:10.650Z,100.00
2023-09-20T14:05:39.653Z,100.00
2023-09-20T14:08:09.440Z,100.00
2023-09-20T14:10:41.885Z,100.00
2023-09-20T14:13:11.084Z,100.00
2023-09-20T14:15:41.337Z,100.00
2023-09-20T14:18:10.333Z,100.00
2023-09-20T14:20:40.383Z,100.00
2023-09-20T14:23:09.102Z,100.00
2023-09-20T14:25:37.988Z,100.00
2023-09-20T14:28:07.123Z,100.00
2023-09-20T14:30:35.929Z,100.00
2023-09-20T14:33:04.810Z,100.00
2023-09-20T14:35:33.267Z,99.22
2023-09-20T14:38:02.009Z,94.73
2023-09-20T14:40:30.286Z,86.49
2023-09-20T14:42:59.134Z,79.73
2023-09-20T14:45:33.078Z,84.41
2023-09-20T14:48:03.874Z,80.78
2023-09-20T14:50:33.245Z,76.87
2023-09-20T14:53:03.499Z,82.61
2023-09-20T14:55:32.014Z,84.85
2023-09-20T14:58:00.412Z,86.61
2023-09-20T15:00:31.931Z,85.84
2023-09-20T15:03:03.641Z,86.95
2023-09-20T15:05:33.526Z,88.66
2023-09-20T15:08:02.515Z,91.05
2023-09-20T15:10:30.852Z,90.67
2023-09-20T15:13:00.663Z,95.24
2023-09-20T15:15:31.018Z,96.86
2023-09-20T15:18:00.918Z,95.44
2023-09-20T15:20:32.909Z,95.32
2023-09-20T15:23:02.109Z,96.26
2023-09-20T15:25:33.454Z,97.40
2023-09-20T15:28:01.877Z,99.08
2023-09-20T15:30:31.669Z,99.91
2023-09-20T15:33:00.526Z,99.95
2023-09-20T15:35:29.902Z,100.00
2023-09-20T15:37:58.892Z,100.00
2023-09-20T15:40:29.386Z,100.00
2023-09-20T15:42:59.261Z,100.00
2023-09-20T15:45:28.665Z,100.00
2023-09-20T15:47:58.276Z,100.00
2023-09-20T15:50:28.597Z,100.00
2023-09-20T15:52:58.924Z,100.00
2023-09-20T15:55:27.441Z,100.00
2023-09-20T15:57:55.973Z,100.00
2023-09-20T16:00:24.385Z,100.00
2023-09-20T16:02:52.915Z,100.00
2023-09-20T16:05:22.083Z,100.00
2023-09-20T16:07:50.581Z,100.00
2023-09-20T16:10:19.664Z,100.00
2023-09-20T16:12:48.846Z,100.00
2023-09-20T16:15:18.483Z,100.00
2023-09-20T16:17:48.185Z,100.00
2023-09-20T16:20:17.144Z,100.00
2023-09-20T16:22:47.798Z,100.00
2023-09-20T16:25:16.609Z,100.00
2023-09-20T16:27:46.503Z,100.00
2023-09-20T16:30:16.049Z,100.00
2023-09-20T16:32:46.165Z,100.00
2023-09-20T16:35:17.191Z,100.00
2023-09-20T16:37:46.780Z,100.00
2023-09-20T16:40:16.097Z,100.00
2023-09-20T16:42:44.981Z,100.00
2023-09-20T16:45:15.671Z,100.00
2023-09-20T16:47:44.404Z,100.00
2023-09-20T16:50:14.360Z,100.00
2023-09-20T16:52:43.108Z,100.00
2023-09-20T16:55:11.861Z,100.00
2023-09-20T16:57:40.498Z,100.00
2023-09-20T17:00:13.570Z,100.00
2023-09-20T17:02:42.821Z,100.00
2023-09-20T17:05:16.588Z,100.00
2023-09-20T17:07:45.813Z,100.00
2023-09-20T17:10:17.391Z,100.00
2023-09-20T17:12:48.191Z,100.00
2023-09-20T17:15:19.258Z,100.00
2023-09-20T17:17:47.812Z,100.00
2023-09-20T17:20:16.973Z,100.00
2023-09-20T17:22:45.573Z,100.00
2023-09-20T17:25:15.278Z,100.00
2023-09-20T17:27:46.810Z,100.00
2023-09-20T17:30:20.344Z,100.00
2023-09-20T17:32:50.416Z,100.00
2023-09-20T17:35:19.313Z,100.00
2023-09-20T17:37:47.854Z,100.00
2023-09-20T17:40:18.769Z,100.00
2023-09-20T17:42:47.486Z,100.00
2023-09-20T17:45:18.321Z,100.00
2023-09-20T17:47:49.696Z,100.00
2023-09-20T17:50:18.717Z,100.00
2023-09-20T17:52:52.342Z,100.00
2023-09-20T17:55:20.987Z,100.00
2023-09-20T17:57:51.069Z,100.00
2023-09-20T18:00:25.407Z,100.00
2023-09-20T18:02:58.147Z,100.00
2023-09-20T18:05:26.938Z,100.00
2023-09-20T18:07:55.473Z,100.00
2023-09-20T18:10:25.520Z,100.00
2023-09-20T18:12:54.144Z,100.00
2023-09-20T18:15:22.785Z,100.00
2023-09-20T18:17:51.584Z,100.00
2023-09-20T18:20:21.117Z,100.00
2023-09-20T18:22:49.524Z,100.00
2023-09-20T18:25:18.631Z,100.00
2023-09-20T18:27:52.128Z,100.00
2023-09-20T18:30:20.806Z,100.00
2023-09-20T18:32:53.332Z,100.00
2023-09-20T18:35:21.772Z,100.00
2023-09-20T18:37:50.497Z,100.00
2023-09-20T18:40:19.403Z,100.00
2023-09-20T18:42:47.991Z,100.00
2023-09-20T18:45:16.406Z,100.00
2023-09-20T18:47:45.195Z,100.00
2023-09-20T18:50:19.193Z,100.00
2023-09-20T18:52:48.511Z,100.00
2023-09-20T18:55:17.443Z,100.00
2023-09-20T18:57:53.203Z,100.00
2023-09-20T19:00:24.559Z,100.00
2023-09-20T19:02:55.326Z,100.00
2023-09-20T19:05:23.965Z,100.00
2023-09-20T19:07:52.916Z,100.00
2023-09-20T19:10:21.608Z,100.00
2023-09-20T19:12:50.016Z,100.00
2023-09-20T19:15:18.545Z,100.00
2023-09-20T19:17:48.078Z,100.00
2023-09-20T19:20:20.555Z,100.00
2023-09-20T19:22:49.034Z,100.00
2023-09-20T19:25:19.241Z,100.00
2023-09-20T19:27:49.270Z,100.00
2023-09-20T19:30:19.913Z,100.00
2023-09-20T19:32:49.260Z,100.00
2023-09-20T19:35:18.819Z,100.00
2023-09-20T19:37:47.462Z,100.00
2023-09-20T19:40:20.382Z,100.00
2023-09-20T19:42:50.161Z,100.00
2023-09-20T19:45:20.076Z,100.00
2023-09-20T19:47:49.336Z,100.00
2023-09-20T19:50:21.060Z,100.00
2023-09-20T19:52:49.925Z,100.00
2023-09-20T19:55:25.431Z,100.00
2023-09-20T19:57:59.985Z,100.00
2023-09-20T20:00:29.728Z,100.00
2023-09-20T20:03:02.009Z,100.00
2023-09-20T20:05:30.740Z,100.00
2023-09-20T20:08:05.066Z,100.00
2023-09-20T20:10:39.520Z,100.00
2023-09-20T20:13:08.209Z,100.00
2023-09-20T20:15:36.620Z,100.00
2023-09-20T20:18:05.967Z,100.00
2023-09-20T20:20:34.703Z,100.00
2023-09-20T20:23:07.312Z,100.00
2023-09-20T20:25:39.054Z,100.00
2023-09-20T20:28:20.102Z,100.00
2023-09-20T20:30:49.893Z,100.00
2023-09-20T20:33:18.600Z,100.00
2023-09-20T20:35:47.077Z,100.00
2023-09-20T20:38:18.064Z,100.00
2023-09-20T20:40:47.387Z,100.00
2023-09-20T20:43:15.902Z,100.00
2023-09-20T20:45:44.769Z,100.00
2023-09-20T20:48:14.251Z,100.00
2023-09-20T20:50:44.476Z,100.00
2023-09-20T20:53:21.799Z,100.00
2023-09-20T20:55:58.579Z,100.00
2023-09-20T20:58:27.060Z,100.00
2023-09-20T21:00:59.012Z,100.00
2023-09-20T21:03:27.732Z,100.00
2023-09-20T21:05:56.700Z,100.00
2023-09-20T21:08:25.067Z,100.00
2023-09-20T21:10:54.114Z,100.00
2023-09-20T21:13:22.965Z,100.00
2023-09-20T21:15:51.341Z,100.00
2023-09-20T21:18:20.060Z,100.00
2023-09-20T21:20:52.276Z,100.00
2023-09-20T21:23:20.855Z,100.00
2023-09-20T21:25:49.922Z,100.00
2023-09-20T21:28:18.476Z,100.00
2023-09-20T21:30:48.342Z,100.00
2023-09-20T21:33:17.816Z,100.00
2023-09-20T21:35:47.109Z,100.00
2023-09-20T21:38:15.570Z,100.00
2023-09-20T21:40:44.107Z,100.00
2023-09-20T21:43:12.549Z,100.00
2023-09-20T21:45:40.942Z,100.00
2023-09-20T21:48:11.111Z,100.00
2023-09-20T21:50:41.716Z,100.00
2023-09-20T21:53:13.115Z,100.00
2023-09-20T21:55:41.540Z,100.00
2023-09-20T21:58:10.326Z,100.00
2023-09-20T22:00:38.941Z,100.00
2023-09-20T22:03:09.066Z,100.00
2023-09-20T22:05:38.511Z,100.00
2023-09-20T22:08:10.847Z,100.00
2023-09-20T22:10:42.524Z,100.00
2023-09-20T22:13:13.032Z,100.00
2023-09-20T22:15:42.178Z,100.00
2023-09-20T22:18:21.648Z,100.00
2023-09-20T22:20:53.498Z,100.00
2023-09-20T22:23:24.041Z,100.00
2023-09-20T22:25:53.714Z,100.00
2023-09-20T22:28:22.250Z,100.00
2023-09-20T22:30:50.749Z,100.00
2023-09-20T22:33:19.416Z,100.00
2023-09-20T22:36:00.400Z,100.00
2023-09-20T22:38:38.665Z,100.00
2023-09-20T22:41:07.041Z,100.00
2023-09-20T22:43:35.530Z,100.00
2023-09-20T22:46:04.431Z,100.00
2023-09-20T22:48:33.764Z,100.00
2023-09-20T22:51:02.801Z,100.00
2023-09-20T22:53:31.339Z,100.00
2023-09-20T22:56:08.036Z,100.00
2023-09-20T22:58:36.661Z,100.00
2023-09-20T23:01:06.861Z,100.00
2023-09-20T23:03:36.801Z,100.00
2023-09-20T23:06:06.588Z,100.00
2023-09-20T23:08:36.327Z,100.00
2023-09-20T23:11:11.409Z,100.00
2023-09-20T23:13:41.009Z,100.00
2023-09-20T23:16:17.835Z,100.00
2023-09-20T23:18:47.888Z,100.00
2023-09-20T23:21:19.740Z,100.00
2023-09-20T23:23:49.568Z,100.00
2023-09-20T23:26:18.707Z,100.00
2023-09-20T23:28:47.510Z,100.00
2023-09-20T23:31:17.614Z,100.00
2023-09-20T23:33:47.780Z,100.00
2023-09-20T23:36:16.812Z,100.00
2023-09-20T23:38:45.896Z,100.00
2023-09-20T23:41:19.250Z,100.00
2023-09-20T23:43:51.982Z,100.00
2023-09-20T23:46:23.806Z,100.00
2023-09-20T23:48:54.154Z,100.00
2023-09-20T23:51:23.926Z,100.00
2023-09-20T23:53:53.892Z,100.00
2023-09-20T23:56:23.969Z,100.00
2023-09-20T23:58:53.013Z,100.00
